createdAt,value
2019-03-31T00:00:10.884Z,4.25
2019-03-31T00:00:40.916Z,4.25
2019-03-31T00:01:11.031Z,4.25
2019-03-31T00:01:41.320Z,4.25
2019-03-31T00:02:10.824Z,4.25
2019-03-31T00:02:40.945Z,4.25
2019-03-31T00:03:11.507Z,4.25
2019-03-31T00:03:41.231Z,4.25
2019-03-31T00:04:13.250Z,4.25
2019-03-31T00:04:40.938Z,4.31
2019-03-31T00:05:10.964Z,4.31
2019-03-31T00:05:41.061Z,4.31
2019-03-31T00:06:10.983Z,4.25
2019-03-31T00:06:41.055Z,4.25
2019-03-31T00:07:11.084Z,4.25
2019-03-31T00:07:41.034Z,4.19
2019-03-31T00:08:11.131Z,4.19
2019-03-31T00:08:41.118Z,4.12
2019-03-31T00:09:11.248Z,4.06
2019-03-31T00:09:41.200Z,4.06
2019-03-31T00:10:11.257Z,4.06
2019-03-31T00:10:41.246Z,4.06
2019-03-31T00:11:11.119Z,4.06
2019-03-31T00:11:41.044Z,4.12
2019-03-31T00:12:11.051Z,4.19
2019-03-31T00:12:41.122Z,4.19
2019-03-31T00:13:12.788Z,4.19
2019-03-31T00:13:41.375Z,4.25
2019-03-31T00:14:11.291Z,4.19
2019-03-31T00:14:41.450Z,4.19
2019-03-31T00:15:13.847Z,4.12
2019-03-31T00:15:41.234Z,4.12
2019-03-31T00:16:11.315Z,4.12
2019-03-31T00:16:42.714Z,4.06
2019-03-31T00:17:11.291Z,4.06
2019-03-31T00:17:41.243Z,4.12
2019-03-31T00:18:12.384Z,4.31
2019-03-31T00:18:43.627Z,4.37
2019-03-31T00:19:12.075Z,4.31
2019-03-31T00:19:41.355Z,4.25
2019-03-31T00:20:12.516Z,4.19
2019-03-31T00:20:42.802Z,4.25
2019-03-31T00:21:11.381Z,4.25
2019-03-31T00:21:41.422Z,4.25
2019-03-31T00:22:12.063Z,4.25
2019-03-31T00:22:42.701Z,4.31
2019-03-31T00:23:12.118Z,4.25
2019-03-31T00:23:41.598Z,4.44
2019-03-31T00:24:13.014Z,4.37
2019-03-31T00:24:41.723Z,4.44
2019-03-31T00:25:11.882Z,4.5
2019-03-31T00:25:41.478Z,4.5
2019-03-31T00:26:12.132Z,4.5
2019-03-31T00:26:41.573Z,4.56
2019-03-31T00:27:11.728Z,4.62
2019-03-31T00:27:41.622Z,4.62
2019-03-31T00:28:12.321Z,4.62
2019-03-31T00:28:42.344Z,4.62
2019-03-31T00:29:11.652Z,4.62
2019-03-31T00:29:41.496Z,4.62
2019-03-31T00:30:11.654Z,4.62
2019-03-31T00:30:41.739Z,4.56
2019-03-31T00:31:21.796Z,4.5
2019-03-31T00:31:42.107Z,4.44
2019-03-31T00:32:12.836Z,4.37
2019-03-31T00:32:42.286Z,4.31
2019-03-31T00:33:11.724Z,4.25
2019-03-31T00:33:42.666Z,4.25
2019-03-31T00:34:13.511Z,4.19
2019-03-31T00:34:41.784Z,4.19
2019-03-31T00:35:11.856Z,4.19
2019-03-31T00:35:43.011Z,4.19
2019-03-31T00:36:11.824Z,4.19
2019-03-31T00:36:41.825Z,4.19
2019-03-31T00:37:14.288Z,4.19
2019-03-31T00:37:42.146Z,4.12
2019-03-31T00:38:11.821Z,4.12
2019-03-31T00:38:41.940Z,4.12
2019-03-31T00:39:12.495Z,4.06
2019-03-31T00:39:42.451Z,4.12
2019-03-31T00:40:11.810Z,4.12
2019-03-31T00:40:41.939Z,4.12
2019-03-31T00:41:11.831Z,4.12
2019-03-31T00:41:45.406Z,4.19
2019-03-31T00:42:13.269Z,4.19
2019-03-31T00:42:42.082Z,4.12
2019-03-31T00:43:12.017Z,4.19
2019-03-31T00:43:41.819Z,4.12
2019-03-31T00:44:12.026Z,4.12
2019-03-31T00:44:41.943Z,4.12
2019-03-31T00:45:12.022Z,4.12
2019-03-31T00:45:43.387Z,4.06
2019-03-31T00:46:11.898Z,4.06
2019-03-31T00:46:42.004Z,4.06
2019-03-31T00:47:11.948Z,4.12
2019-03-31T00:47:42.136Z,4.12
2019-03-31T00:48:12.115Z,4.19
2019-03-31T00:48:42.008Z,4.12
2019-03-31T00:49:12.517Z,4.12
2019-03-31T00:49:42.208Z,4.12
2019-03-31T00:50:12.484Z,4.12
2019-03-31T00:50:42.296Z,4.12
2019-03-31T00:51:12.092Z,4.06
2019-03-31T00:51:43.017Z,4.06
2019-03-31T00:52:12.350Z,4
2019-03-31T00:52:42.338Z,4
2019-03-31T00:53:12.144Z,3.94
2019-03-31T00:53:42.146Z,3.87
2019-03-31T00:54:12.277Z,3.87
2019-03-31T00:54:42.138Z,3.87
2019-03-31T00:55:13.819Z,3.81
2019-03-31T00:55:42.441Z,3.87
2019-03-31T00:56:12.211Z,3.94
2019-03-31T00:56:42.322Z,3.94
2019-03-31T00:57:13.575Z,3.87
2019-03-31T00:57:42.437Z,3.87
2019-03-31T00:58:12.486Z,3.87
2019-03-31T00:58:42.549Z,3.87
2019-03-31T00:59:12.528Z,3.75
2019-03-31T00:59:42.366Z,3.75
2019-03-31T01:00:14.325Z,3.69
2019-03-31T01:00:42.387Z,3.69
2019-03-31T01:01:12.826Z,3.69
2019-03-31T01:01:42.598Z,3.62
2019-03-31T01:02:12.478Z,3.56
2019-03-31T01:02:42.466Z,3.56
2019-03-31T01:03:12.536Z,3.56
2019-03-31T01:03:42.429Z,3.5
2019-03-31T01:04:12.535Z,3.5
2019-03-31T01:04:42.424Z,3.5
2019-03-31T01:05:12.352Z,3.44
2019-03-31T01:05:42.581Z,3.44
2019-03-31T01:06:12.621Z,3.44
2019-03-31T01:06:42.596Z,3.44
2019-03-31T01:07:12.576Z,3.37
2019-03-31T01:07:42.506Z,3.37
2019-03-31T01:08:12.632Z,3.31
2019-03-31T01:08:42.564Z,3.37
2019-03-31T01:09:12.507Z,3.31
2019-03-31T01:09:42.700Z,3.31
2019-03-31T01:10:12.573Z,3.31
2019-03-31T01:10:42.698Z,3.37
2019-03-31T01:11:13.223Z,3.31
2019-03-31T01:11:42.551Z,3.37
2019-03-31T01:12:12.680Z,3.37
2019-03-31T01:12:42.701Z,3.37
2019-03-31T01:13:12.788Z,3.44
2019-03-31T01:13:42.542Z,3.37
2019-03-31T01:14:12.857Z,3.37
2019-03-31T01:14:44.422Z,3.31
2019-03-31T01:15:12.872Z,3.37
2019-03-31T01:15:42.909Z,3.37
2019-03-31T01:16:12.821Z,3.31
2019-03-31T01:16:42.772Z,3.31
2019-03-31T01:17:12.796Z,3.31
2019-03-31T01:17:42.677Z,3.37
2019-03-31T01:18:14.616Z,3.31
2019-03-31T01:18:42.861Z,3.31
2019-03-31T01:19:12.649Z,3.37
2019-03-31T01:19:42.817Z,3.37
2019-03-31T01:20:15.319Z,3.44
2019-03-31T01:20:43.573Z,3.44
2019-03-31T01:21:12.912Z,3.44
2019-03-31T01:21:42.958Z,3.37
2019-03-31T01:22:15.329Z,3.31
2019-03-31T01:22:42.918Z,3.31
2019-03-31T01:23:13.069Z,3.31
2019-03-31T01:23:42.958Z,3.31
2019-03-31T01:24:13.930Z,3.25
2019-03-31T01:24:43.023Z,3.25
2019-03-31T01:25:13.069Z,3.25
2019-03-31T01:25:43.038Z,3.25
2019-03-31T01:26:13.215Z,3.25
2019-03-31T01:26:42.893Z,3.25
2019-03-31T01:27:13.173Z,3.25
2019-03-31T01:27:43.065Z,3.25
2019-03-31T01:28:13.027Z,3.31
2019-03-31T01:28:43.225Z,3.37
2019-03-31T01:29:14.444Z,3.37
2019-03-31T01:29:43.384Z,3.37
2019-03-31T01:30:14.493Z,3.37
2019-03-31T01:30:43.292Z,3.44
2019-03-31T01:31:13.343Z,3.44
2019-03-31T01:31:49.930Z,3.44
2019-03-31T01:32:13.205Z,3.44
2019-03-31T01:32:43.260Z,3.44
2019-03-31T01:33:13.292Z,3.5
2019-03-31T01:33:45.609Z,3.5
2019-03-31T01:34:13.294Z,3.5
2019-03-31T01:34:43.305Z,3.5
2019-03-31T01:35:13.164Z,3.44
2019-03-31T01:35:43.502Z,3.5
2019-03-31T01:36:13.184Z,3.56
2019-03-31T01:36:43.239Z,3.56
2019-03-31T01:37:13.234Z,3.5
2019-03-31T01:37:43.320Z,3.5
2019-03-31T01:38:13.384Z,3.44
2019-03-31T01:38:43.340Z,3.44
2019-03-31T01:39:13.495Z,3.37
2019-03-31T01:39:43.535Z,3.37
2019-03-31T01:40:13.489Z,3.31
2019-03-31T01:40:43.478Z,3.31
2019-03-31T01:41:13.414Z,3.31
2019-03-31T01:41:43.327Z,3.31
2019-03-31T01:42:13.339Z,3.31
2019-03-31T01:42:43.334Z,3.31
2019-03-31T01:43:13.436Z,3.25
2019-03-31T01:43:45.164Z,3.25
2019-03-31T01:44:13.464Z,3.31
2019-03-31T01:44:45.216Z,3.31
2019-03-31T01:45:13.536Z,3.31
2019-03-31T01:45:43.368Z,3.31
2019-03-31T01:46:13.476Z,3.31
2019-03-31T01:46:43.462Z,3.37
2019-03-31T01:47:15.419Z,3.31
2019-03-31T01:47:43.576Z,3.31
2019-03-31T01:48:13.619Z,3.31
2019-03-31T01:48:43.505Z,3.37
2019-03-31T01:49:13.623Z,3.37
2019-03-31T01:49:43.632Z,3.44
2019-03-31T01:50:13.425Z,3.44
2019-03-31T01:50:43.716Z,3.44
2019-03-31T01:51:13.885Z,3.44
2019-03-31T01:51:43.553Z,3.44
2019-03-31T01:52:13.542Z,3.44
2019-03-31T01:52:43.643Z,3.44
2019-03-31T01:53:14.613Z,3.44
2019-03-31T01:53:43.753Z,3.44
2019-03-31T01:54:13.694Z,3.44
2019-03-31T01:54:43.767Z,3.44
2019-03-31T01:55:13.802Z,3.44
2019-03-31T01:55:45.294Z,3.44
2019-03-31T01:56:13.721Z,3.44
2019-03-31T01:56:44.838Z,3.44
2019-03-31T01:57:13.808Z,3.44
2019-03-31T01:57:43.645Z,3.44
2019-03-31T01:58:13.727Z,3.5
2019-03-31T01:58:44.957Z,3.44
2019-03-31T01:59:13.820Z,3.44
2019-03-31T01:59:43.805Z,3.37
2019-03-31T02:00:13.765Z,3.31
2019-03-31T02:00:43.803Z,3.31
2019-03-31T02:01:13.926Z,3.25
2019-03-31T02:01:43.929Z,3.25
2019-03-31T02:02:13.777Z,3.19
2019-03-31T02:02:43.776Z,3.19
2019-03-31T02:03:13.959Z,3.19
2019-03-31T02:03:43.862Z,3.19
2019-03-31T02:04:14.000Z,3.19
2019-03-31T02:04:44.001Z,3.31
2019-03-31T02:05:14.010Z,3.31
2019-03-31T02:05:44.055Z,3.31
2019-03-31T02:06:14.008Z,3.44
2019-03-31T02:06:44.911Z,3.44
2019-03-31T02:07:14.003Z,3.5
2019-03-31T02:07:43.881Z,3.62
2019-03-31T02:08:13.908Z,3.69
2019-03-31T02:08:43.987Z,3.75
2019-03-31T02:09:14.142Z,3.69
2019-03-31T02:09:43.922Z,3.69
2019-03-31T02:10:13.952Z,3.62
2019-03-31T02:10:44.057Z,3.62
2019-03-31T02:11:14.224Z,3.69
2019-03-31T02:11:44.262Z,3.62
2019-03-31T02:12:14.637Z,3.62
2019-03-31T02:12:44.322Z,3.62
2019-03-31T02:13:14.309Z,3.56
2019-03-31T02:13:44.087Z,3.56
2019-03-31T02:14:14.006Z,3.56
2019-03-31T02:14:44.278Z,3.5
2019-03-31T02:15:14.107Z,3.44
2019-03-31T02:15:44.251Z,3.44
2019-03-31T02:16:16.909Z,3.44
2019-03-31T02:16:44.113Z,3.44
2019-03-31T02:17:14.205Z,3.44
2019-03-31T02:17:46.045Z,3.44
2019-03-31T02:18:14.452Z,3.44
2019-03-31T02:18:44.154Z,3.44
2019-03-31T02:19:14.249Z,3.44
2019-03-31T02:19:46.926Z,3.44
2019-03-31T02:20:14.281Z,3.44
2019-03-31T02:20:44.312Z,3.44
2019-03-31T02:21:14.608Z,3.44
2019-03-31T02:21:46.373Z,3.44
2019-03-31T02:22:15.792Z,3.37
2019-03-31T02:22:44.345Z,3.37
2019-03-31T02:23:14.290Z,3.31
2019-03-31T02:23:44.348Z,3.31
2019-03-31T02:24:14.429Z,3.31
2019-03-31T02:24:44.469Z,3.25
2019-03-31T02:25:14.469Z,3.25
2019-03-31T02:25:45.984Z,3.25
2019-03-31T02:26:14.406Z,3.25
2019-03-31T02:26:44.522Z,3.25
2019-03-31T02:27:14.522Z,3.25
2019-03-31T02:27:44.526Z,3.31
2019-03-31T02:28:14.355Z,3.31
2019-03-31T02:28:46.750Z,3.31
2019-03-31T02:29:14.390Z,3.37
2019-03-31T02:29:44.486Z,3.37
2019-03-31T02:30:14.420Z,3.37
2019-03-31T02:30:44.571Z,3.37
2019-03-31T02:31:14.526Z,3.44
2019-03-31T02:31:44.759Z,3.44
2019-03-31T02:32:22.993Z,3.44
2019-03-31T02:32:44.580Z,3.44
2019-03-31T02:33:14.440Z,3.44
2019-03-31T02:33:44.747Z,3.44
2019-03-31T02:34:14.649Z,3.44
2019-03-31T02:34:44.578Z,3.44
2019-03-31T02:35:15.342Z,3.44
2019-03-31T02:35:44.854Z,3.44
2019-03-31T02:36:14.732Z,3.44
2019-03-31T02:36:44.715Z,3.37
2019-03-31T02:37:14.854Z,3.37
2019-03-31T02:37:44.870Z,3.31
2019-03-31T02:38:15.005Z,3.31
2019-03-31T02:38:44.860Z,3.31
2019-03-31T02:39:17.570Z,3.31
2019-03-31T02:39:44.788Z,3.31
2019-03-31T02:40:17.776Z,3.31
2019-03-31T02:40:44.996Z,3.31
2019-03-31T02:41:15.091Z,3.25
2019-03-31T02:41:44.988Z,3.25
2019-03-31T02:42:14.966Z,3.25
2019-03-31T02:42:47.705Z,3.19
2019-03-31T02:43:15.101Z,3.19
2019-03-31T02:43:44.927Z,3.19
2019-03-31T02:44:15.069Z,3.12
2019-03-31T02:44:47.690Z,3.12
2019-03-31T02:45:15.917Z,3.12
2019-03-31T02:45:45.027Z,3.12
2019-03-31T02:46:15.222Z,3.12
2019-03-31T02:46:45.104Z,3.12
2019-03-31T02:47:15.040Z,3.12
2019-03-31T02:47:45.207Z,3.12
2019-03-31T02:48:15.285Z,3.12
2019-03-31T02:48:46.214Z,3.12
2019-03-31T02:49:15.121Z,3.12
2019-03-31T02:49:45.192Z,3.12
2019-03-31T02:50:15.214Z,3.19
2019-03-31T02:50:46.991Z,3.19
2019-03-31T02:51:15.297Z,3.19
2019-03-31T02:51:45.111Z,3.19
2019-03-31T02:52:15.201Z,3.19
2019-03-31T02:52:45.222Z,3.25
2019-03-31T02:53:15.920Z,3.25
2019-03-31T02:53:45.435Z,3.25
2019-03-31T02:54:15.507Z,3.25
2019-03-31T02:54:45.662Z,3.19
2019-03-31T02:55:15.315Z,3.19
2019-03-31T02:55:45.519Z,3.19
2019-03-31T02:56:15.489Z,3.19
2019-03-31T02:56:45.497Z,3.19
2019-03-31T02:57:15.312Z,3.19
2019-03-31T02:57:45.377Z,3.19
2019-03-31T02:58:15.785Z,3.19
2019-03-31T02:58:45.518Z,3.19
2019-03-31T02:59:15.337Z,3.19
2019-03-31T02:59:45.500Z,3.19
2019-03-31T03:00:16.097Z,3.19
2019-03-31T03:00:45.484Z,3.19
2019-03-31T03:01:15.640Z,3.12
2019-03-31T03:01:47.108Z,3.12
2019-03-31T03:02:15.549Z,3.12
2019-03-31T03:02:45.486Z,3.12
2019-03-31T03:03:15.607Z,3.12
2019-03-31T03:03:45.612Z,3.12
2019-03-31T03:04:15.529Z,3.12
2019-03-31T03:04:45.515Z,3.19
2019-03-31T03:05:19.154Z,3.25
2019-03-31T03:05:45.576Z,3.25
2019-03-31T03:06:15.613Z,3.25
2019-03-31T03:06:45.715Z,3.25
2019-03-31T03:07:15.439Z,3.25
2019-03-31T03:07:45.458Z,3.25
2019-03-31T03:08:15.566Z,3.25
2019-03-31T03:08:45.470Z,3.25
2019-03-31T03:09:15.644Z,3.25
2019-03-31T03:09:45.605Z,3.19
2019-03-31T03:10:15.699Z,3.19
2019-03-31T03:10:45.499Z,3.25
2019-03-31T03:11:15.676Z,3.25
2019-03-31T03:11:47.855Z,3.31
2019-03-31T03:12:15.725Z,3.37
2019-03-31T03:12:48.177Z,3.31
2019-03-31T03:13:15.608Z,3.31
2019-03-31T03:13:45.768Z,3.25
2019-03-31T03:14:15.755Z,3.19
2019-03-31T03:14:45.873Z,3.19
2019-03-31T03:15:15.820Z,3.25
2019-03-31T03:15:45.620Z,3.19
2019-03-31T03:16:15.939Z,3.19
2019-03-31T03:16:45.839Z,3.19
2019-03-31T03:17:15.697Z,3.19
2019-03-31T03:17:47.551Z,3.19
2019-03-31T03:18:15.877Z,3.12
2019-03-31T03:18:45.918Z,3.12
2019-03-31T03:19:15.847Z,3.06
2019-03-31T03:19:45.776Z,3
2019-03-31T03:20:15.851Z,3
2019-03-31T03:20:45.905Z,3
2019-03-31T03:21:17.773Z,3
2019-03-31T03:21:45.812Z,3.06
2019-03-31T03:22:15.842Z,3.12
2019-03-31T03:22:45.940Z,3.12
2019-03-31T03:23:16.321Z,3.19
2019-03-31T03:23:47.941Z,3.12
2019-03-31T03:24:16.032Z,3.06
2019-03-31T03:24:45.864Z,3
2019-03-31T03:25:16.004Z,3
2019-03-31T03:25:55.432Z,2.94
2019-03-31T03:26:15.888Z,2.94
2019-03-31T03:26:45.907Z,2.94
2019-03-31T03:27:17.108Z,2.94
2019-03-31T03:27:45.961Z,2.94
2019-03-31T03:28:16.048Z,2.87
2019-03-31T03:28:46.070Z,2.87
2019-03-31T03:29:16.108Z,2.94
2019-03-31T03:29:46.195Z,2.94
2019-03-31T03:30:16.144Z,2.94
2019-03-31T03:30:46.286Z,2.94
2019-03-31T03:31:16.655Z,2.94
2019-03-31T03:31:45.970Z,2.94
2019-03-31T03:32:16.057Z,2.94
2019-03-31T03:33:11.711Z,2.94
2019-03-31T03:33:17.781Z,3
2019-03-31T03:33:46.156Z,3
2019-03-31T03:34:16.124Z,3
2019-03-31T03:34:48.616Z,3
2019-03-31T03:35:16.712Z,3
2019-03-31T03:35:46.418Z,3
2019-03-31T03:36:16.103Z,3
2019-03-31T03:36:47.191Z,3
2019-03-31T03:37:16.210Z,2.94
2019-03-31T03:37:46.387Z,2.94
2019-03-31T03:38:16.218Z,2.87
2019-03-31T03:38:47.423Z,2.87
2019-03-31T03:39:16.260Z,2.81
2019-03-31T03:39:46.451Z,2.81
2019-03-31T03:40:16.395Z,2.75
2019-03-31T03:40:46.289Z,2.75
2019-03-31T03:41:16.304Z,2.81
2019-03-31T03:41:46.439Z,2.81
2019-03-31T03:42:16.249Z,2.81
2019-03-31T03:42:46.335Z,2.81
2019-03-31T03:43:16.592Z,2.81
2019-03-31T03:43:54.616Z,2.81
2019-03-31T03:44:16.565Z,2.81
2019-03-31T03:44:46.386Z,2.81
2019-03-31T03:45:16.434Z,2.81
2019-03-31T03:45:46.311Z,2.81
2019-03-31T03:46:18.272Z,2.81
2019-03-31T03:46:46.624Z,2.87
2019-03-31T03:47:16.588Z,2.87
2019-03-31T03:47:46.388Z,2.87
2019-03-31T03:48:16.491Z,2.87
2019-03-31T03:48:46.644Z,2.81
2019-03-31T03:49:16.808Z,2.87
2019-03-31T03:49:46.494Z,2.87
2019-03-31T03:50:18.634Z,2.81
2019-03-31T03:50:46.713Z,2.81
2019-03-31T03:51:16.684Z,2.81
2019-03-31T03:51:46.654Z,2.81
2019-03-31T03:52:16.666Z,2.81
2019-03-31T03:52:46.617Z,2.81
2019-03-31T03:53:16.694Z,2.81
2019-03-31T03:53:46.799Z,2.81
2019-03-31T03:54:16.829Z,2.75
2019-03-31T03:54:46.748Z,2.75
2019-03-31T03:55:16.859Z,2.81
2019-03-31T03:55:46.663Z,2.81
2019-03-31T03:56:18.897Z,2.81
2019-03-31T03:56:47.051Z,2.81
2019-03-31T03:57:18.066Z,2.81
2019-03-31T03:57:46.782Z,2.81
2019-03-31T03:58:16.923Z,2.75
2019-03-31T03:58:46.731Z,2.75
2019-03-31T03:59:16.850Z,2.75
2019-03-31T03:59:48.517Z,2.75
2019-03-31T04:00:16.842Z,2.75
2019-03-31T04:00:46.872Z,2.75
2019-03-31T04:01:16.979Z,2.69
2019-03-31T04:01:48.879Z,2.75
2019-03-31T04:02:17.423Z,2.75
2019-03-31T04:02:46.890Z,2.75
2019-03-31T04:03:29.540Z,2.75
2019-03-31T04:03:46.950Z,2.81
2019-03-31T04:04:17.168Z,2.81
2019-03-31T04:04:46.972Z,2.81
2019-03-31T04:05:16.954Z,2.81
2019-03-31T04:05:47.307Z,2.87
2019-03-31T04:06:17.140Z,2.81
2019-03-31T04:06:47.132Z,2.81
2019-03-31T04:07:17.163Z,2.81
2019-03-31T04:07:47.404Z,2.81
2019-03-31T04:08:17.048Z,2.81
2019-03-31T04:08:46.952Z,2.75
2019-03-31T04:09:17.049Z,2.75
2019-03-31T04:09:47.231Z,2.75
2019-03-31T04:10:17.215Z,2.75
2019-03-31T04:10:47.017Z,2.75
2019-03-31T04:11:21.076Z,2.69
2019-03-31T04:11:47.233Z,2.69
2019-03-31T04:12:17.296Z,2.69
2019-03-31T04:12:47.086Z,2.69
2019-03-31T04:13:17.315Z,2.69
2019-03-31T04:13:47.355Z,2.69
2019-03-31T04:14:17.239Z,2.69
2019-03-31T04:14:47.367Z,2.75
2019-03-31T04:15:17.622Z,2.69
2019-03-31T04:15:47.328Z,2.69
2019-03-31T04:16:17.401Z,2.69
2019-03-31T04:16:47.405Z,2.69
2019-03-31T04:17:17.413Z,2.69
2019-03-31T04:17:47.323Z,2.62
2019-03-31T04:18:17.464Z,2.62
2019-03-31T04:18:49.255Z,2.62
2019-03-31T04:19:19.237Z,2.62
2019-03-31T04:19:47.276Z,2.62
2019-03-31T04:20:17.568Z,2.62
2019-03-31T04:20:47.540Z,2.62
2019-03-31T04:21:17.469Z,2.62
2019-03-31T04:21:47.583Z,2.69
2019-03-31T04:22:17.342Z,2.69
2019-03-31T04:22:49.119Z,2.62
2019-03-31T04:23:17.553Z,2.62
2019-03-31T04:23:47.440Z,2.62
2019-03-31T04:24:17.674Z,2.69
2019-03-31T04:24:50.130Z,2.75
2019-03-31T04:25:18.442Z,2.81
2019-03-31T04:25:47.576Z,2.81
2019-03-31T04:26:17.651Z,2.87
2019-03-31T04:26:47.754Z,2.94
2019-03-31T04:27:21.892Z,3
2019-03-31T04:27:48.807Z,3.06
2019-03-31T04:28:19.089Z,3.06
2019-03-31T04:28:49.835Z,3.06
2019-03-31T04:29:19.115Z,3
2019-03-31T04:29:51.452Z,3.06
2019-03-31T04:30:19.080Z,3
2019-03-31T04:30:51.380Z,3
2019-03-31T04:31:18.991Z,3
2019-03-31T04:31:49.192Z,3
2019-03-31T04:32:19.183Z,2.94
2019-03-31T04:32:49.242Z,2.94
2019-03-31T04:33:19.423Z,2.87
2019-03-31T04:33:51.913Z,2.87
2019-03-31T04:34:19.051Z,2.87
2019-03-31T04:34:49.261Z,2.81
2019-03-31T04:35:19.282Z,2.81
2019-03-31T04:35:49.273Z,2.81
2019-03-31T04:36:19.349Z,2.81
2019-03-31T04:36:49.363Z,2.87
2019-03-31T04:37:19.401Z,2.81
2019-03-31T04:37:49.540Z,2.81
2019-03-31T04:38:19.272Z,2.81
2019-03-31T04:38:49.287Z,2.75
2019-03-31T04:39:19.392Z,2.75
2019-03-31T04:39:49.276Z,2.69
2019-03-31T04:40:19.556Z,2.69
2019-03-31T04:40:49.319Z,2.62
2019-03-31T04:41:19.779Z,2.62
2019-03-31T04:41:49.276Z,2.62
2019-03-31T04:42:19.359Z,2.62
2019-03-31T04:42:49.448Z,2.62
2019-03-31T04:43:19.574Z,2.62
2019-03-31T04:43:49.560Z,2.62
2019-03-31T04:44:19.359Z,2.69
2019-03-31T04:44:49.586Z,2.62
2019-03-31T04:45:19.746Z,2.62
2019-03-31T04:45:49.626Z,2.62
2019-03-31T04:46:19.570Z,2.62
2019-03-31T04:46:49.435Z,2.62
2019-03-31T04:47:19.653Z,2.62
2019-03-31T04:47:49.501Z,2.62
2019-03-31T04:48:21.866Z,2.62
2019-03-31T04:48:49.524Z,2.62
2019-03-31T04:49:19.586Z,2.62
2019-03-31T04:49:49.523Z,2.69
2019-03-31T04:50:19.631Z,2.69
2019-03-31T04:50:51.995Z,2.69
2019-03-31T04:51:19.647Z,2.75
2019-03-31T04:51:52.176Z,2.75
2019-03-31T04:52:19.755Z,2.69
2019-03-31T04:52:50.193Z,2.69
2019-03-31T04:53:19.593Z,2.75
2019-03-31T04:53:49.586Z,2.75
2019-03-31T04:54:19.809Z,2.81
2019-03-31T04:54:49.824Z,2.75
2019-03-31T04:55:19.911Z,2.81
2019-03-31T04:55:49.680Z,2.81
2019-03-31T04:56:19.841Z,2.81
2019-03-31T04:56:49.985Z,2.81
2019-03-31T04:57:19.702Z,2.81
2019-03-31T04:57:51.565Z,2.81
2019-03-31T04:58:19.845Z,2.81
2019-03-31T04:58:49.983Z,2.81
2019-03-31T04:59:19.840Z,2.81
2019-03-31T04:59:49.916Z,2.81
2019-03-31T05:00:19.906Z,2.87
2019-03-31T05:00:50.171Z,2.87
2019-03-31T05:01:21.613Z,2.94
2019-03-31T05:01:49.789Z,3
2019-03-31T05:02:19.911Z,3.06
2019-03-31T05:02:50.043Z,3.12
2019-03-31T05:03:22.564Z,3.25
2019-03-31T05:04:03.718Z,3.25
2019-03-31T05:04:19.856Z,3.25
2019-03-31T05:04:50.025Z,3.25
2019-03-31T05:05:20.225Z,3.19
2019-03-31T05:05:50.034Z,3.12
2019-03-31T05:06:19.967Z,3.06
2019-03-31T05:06:50.041Z,3.06
2019-03-31T05:07:20.857Z,3
2019-03-31T05:07:50.152Z,3
2019-03-31T05:08:20.310Z,3
2019-03-31T05:08:50.253Z,3
2019-03-31T05:09:20.184Z,2.94
2019-03-31T05:09:50.004Z,2.94
2019-03-31T05:10:20.281Z,2.94
2019-03-31T05:10:50.219Z,2.94
2019-03-31T05:11:20.178Z,2.94
2019-03-31T05:11:50.427Z,2.94
2019-03-31T05:12:20.384Z,2.87
2019-03-31T05:12:50.206Z,2.87
2019-03-31T05:13:20.244Z,2.87
2019-03-31T05:13:50.120Z,2.87
2019-03-31T05:14:22.122Z,2.87
2019-03-31T05:14:50.282Z,2.94
2019-03-31T05:15:20.486Z,2.94
2019-03-31T05:15:50.423Z,2.94
2019-03-31T05:16:20.286Z,2.94
2019-03-31T05:16:50.224Z,2.94
2019-03-31T05:17:20.241Z,2.94
2019-03-31T05:17:50.189Z,2.94
2019-03-31T05:18:20.235Z,2.94
2019-03-31T05:18:50.336Z,2.94
2019-03-31T05:19:20.364Z,3
2019-03-31T05:19:50.407Z,3
2019-03-31T05:20:20.377Z,3
2019-03-31T05:20:52.982Z,3
2019-03-31T05:21:20.299Z,3
2019-03-31T05:21:50.362Z,3
2019-03-31T05:22:20.448Z,3
2019-03-31T05:22:52.770Z,3.06
2019-03-31T05:23:20.509Z,3.06
2019-03-31T05:23:50.604Z,3.06
2019-03-31T05:24:23.118Z,3.12
2019-03-31T05:24:50.747Z,3.12
2019-03-31T05:25:20.551Z,3.19
2019-03-31T05:25:50.570Z,3.19
2019-03-31T05:26:22.564Z,3.19
2019-03-31T05:26:51.342Z,3.19
2019-03-31T05:27:20.604Z,3.19
2019-03-31T05:27:50.533Z,3.12
2019-03-31T05:28:20.668Z,3.12
2019-03-31T05:28:50.609Z,3.12
2019-03-31T05:29:20.609Z,3.19
2019-03-31T05:29:50.722Z,3.12
2019-03-31T05:30:21.757Z,3.12
2019-03-31T05:30:50.587Z,3.12
2019-03-31T05:31:20.646Z,3.12
2019-03-31T05:31:50.620Z,3.19
2019-03-31T05:32:20.633Z,3.19
2019-03-31T05:32:50.690Z,3.25
2019-03-31T05:33:20.764Z,3.25
2019-03-31T05:33:50.591Z,3.31
2019-03-31T05:34:20.714Z,3.31
2019-03-31T05:34:50.871Z,3.31
2019-03-31T05:35:20.711Z,3.37
2019-03-31T05:35:50.780Z,3.37
2019-03-31T05:36:22.966Z,3.37
2019-03-31T05:36:50.828Z,3.44
2019-03-31T05:37:20.798Z,3.44
2019-03-31T05:37:51.546Z,3.44
2019-03-31T05:38:20.888Z,3.44
2019-03-31T05:38:51.130Z,3.5
2019-03-31T05:39:21.090Z,3.5
2019-03-31T05:39:50.956Z,3.56
2019-03-31T05:40:21.172Z,3.56
2019-03-31T05:40:50.837Z,3.56
2019-03-31T05:41:20.830Z,3.56
2019-03-31T05:41:50.807Z,3.56
2019-03-31T05:42:21.345Z,3.56
2019-03-31T05:42:50.952Z,3.56
2019-03-31T05:43:20.940Z,3.56
2019-03-31T05:44:05.045Z,3.56
2019-03-31T05:44:21.123Z,3.56
2019-03-31T05:44:51.287Z,3.56
2019-03-31T05:45:21.069Z,3.62
2019-03-31T05:45:52.516Z,3.62
2019-03-31T05:46:21.070Z,3.62
2019-03-31T05:46:51.019Z,3.69
2019-03-31T05:47:24.795Z,3.69
2019-03-31T05:47:50.942Z,3.69
2019-03-31T05:48:21.118Z,3.75
2019-03-31T05:48:51.106Z,3.75
2019-03-31T05:49:23.084Z,3.81
2019-03-31T05:49:51.450Z,3.87
2019-03-31T05:50:21.351Z,3.94
2019-03-31T05:50:51.326Z,4
2019-03-31T05:51:21.314Z,3.94
2019-03-31T05:51:51.133Z,3.94
2019-03-31T05:52:21.228Z,3.87
2019-03-31T05:52:51.100Z,3.87
2019-03-31T05:53:22.284Z,3.87
2019-03-31T05:53:51.159Z,3.87
2019-03-31T05:54:21.248Z,3.87
2019-03-31T05:54:51.364Z,3.87
2019-03-31T05:55:21.336Z,3.87
2019-03-31T05:55:51.364Z,3.87
2019-03-31T05:56:21.339Z,3.87
2019-03-31T05:56:51.358Z,3.94
2019-03-31T05:57:21.241Z,3.94
2019-03-31T05:57:51.478Z,3.94
2019-03-31T05:58:21.802Z,4
2019-03-31T05:58:51.531Z,4
2019-03-31T05:59:21.488Z,4
2019-03-31T05:59:51.368Z,4
2019-03-31T06:00:21.769Z,4
2019-03-31T06:00:51.663Z,4.06
2019-03-31T06:01:21.654Z,4.06
2019-03-31T06:01:51.534Z,4.12
2019-03-31T06:02:21.699Z,4.12
2019-03-31T06:02:51.502Z,4.12
2019-03-31T06:03:21.670Z,4.12
2019-03-31T06:03:51.551Z,4.12
2019-03-31T06:04:32.534Z,4.12
2019-03-31T06:04:51.838Z,4.19
2019-03-31T06:05:21.678Z,4.19
2019-03-31T06:05:51.646Z,4.25
2019-03-31T06:06:21.633Z,4.25
2019-03-31T06:06:53.905Z,4.25
2019-03-31T06:07:21.440Z,4.25
2019-03-31T06:07:51.665Z,4.25
2019-03-31T06:08:21.756Z,4.31
2019-03-31T06:08:51.611Z,4.31
2019-03-31T06:09:21.556Z,4.31
2019-03-31T06:09:53.496Z,4.37
2019-03-31T06:10:24.417Z,4.44
2019-03-31T06:10:51.615Z,4.44
2019-03-31T06:11:21.737Z,4.5
2019-03-31T06:11:53.474Z,4.5
2019-03-31T06:12:23.722Z,4.5
2019-03-31T06:12:51.661Z,4.5
2019-03-31T06:13:21.856Z,4.5
2019-03-31T06:13:51.777Z,4.5
2019-03-31T06:14:21.856Z,4.5
2019-03-31T06:14:51.749Z,4.5
2019-03-31T06:15:21.906Z,4.5
2019-03-31T06:15:51.922Z,4.56
2019-03-31T06:16:22.910Z,4.62
2019-03-31T06:16:51.851Z,4.62
2019-03-31T06:17:22.102Z,4.62
2019-03-31T06:17:51.982Z,4.69
2019-03-31T06:18:22.094Z,4.62
2019-03-31T06:18:51.961Z,4.62
2019-03-31T06:19:21.862Z,4.62
2019-03-31T06:19:52.006Z,4.69
2019-03-31T06:20:25.323Z,4.69
2019-03-31T06:20:51.870Z,4.75
2019-03-31T06:21:22.054Z,4.75
2019-03-31T06:21:52.037Z,4.75
2019-03-31T06:22:22.235Z,4.75
2019-03-31T06:22:51.828Z,4.75
2019-03-31T06:23:22.023Z,4.81
2019-03-31T06:23:51.890Z,4.75
2019-03-31T06:24:22.422Z,4.81
2019-03-31T06:24:52.075Z,4.75
2019-03-31T06:25:22.362Z,4.81
2019-03-31T06:25:52.082Z,4.75
2019-03-31T06:26:22.479Z,4.75
2019-03-31T06:26:52.177Z,4.75
2019-03-31T06:27:22.411Z,4.75
2019-03-31T06:27:52.352Z,4.75
2019-03-31T06:28:22.547Z,4.81
2019-03-31T06:28:52.129Z,4.81
2019-03-31T06:29:22.423Z,4.81
2019-03-31T06:29:53.562Z,4.87
2019-03-31T06:30:22.614Z,4.87
2019-03-31T06:30:52.328Z,4.87
2019-03-31T06:31:24.593Z,4.87
2019-03-31T06:31:52.257Z,4.87
2019-03-31T06:32:22.308Z,5
2019-03-31T06:32:55.311Z,5.06
2019-03-31T06:33:23.189Z,5.06
2019-03-31T06:33:52.358Z,5.12
2019-03-31T06:34:22.475Z,5.12
2019-03-31T06:34:52.457Z,5.12
2019-03-31T06:35:23.641Z,5.06
2019-03-31T06:35:52.514Z,5.06
2019-03-31T06:36:22.683Z,5.06
2019-03-31T06:36:52.505Z,5
2019-03-31T06:37:22.598Z,5
2019-03-31T06:37:52.776Z,5
2019-03-31T06:38:22.778Z,5
2019-03-31T06:38:52.678Z,5
2019-03-31T06:39:22.728Z,5.06
2019-03-31T06:39:52.726Z,5.06
2019-03-31T06:40:22.901Z,5.06
2019-03-31T06:40:52.660Z,5.06
2019-03-31T06:41:22.709Z,5.12
2019-03-31T06:41:52.779Z,5.12
2019-03-31T06:42:24.981Z,5.19